createdAt,value
2019-03-19T00:01:00.699Z,25.92
2019-03-19T00:02:02.113Z,25.87
2019-03-19T00:03:03.621Z,25.89
2019-03-19T00:04:05.029Z,25.91
2019-03-19T00:05:06.635Z,25.89
2019-03-19T00:06:08.154Z,26.01
2019-03-19T00:07:09.654Z,25.98
2019-03-19T00:08:11.034Z,25.99
2019-03-19T00:09:12.433Z,25.93
2019-03-19T00:10:13.909Z,25.98
2019-03-19T00:11:15.310Z,26.03
2019-03-19T00:12:16.965Z,26.02
2019-03-19T00:13:19.367Z,25.98
2019-03-19T00:14:20.778Z,26.00
2019-03-19T00:15:22.198Z,26.05
2019-03-19T00:16:23.611Z,26.07
2019-03-19T00:17:25.189Z,26.12
2019-03-19T00:18:26.563Z,26.12
2019-03-19T00:19:27.965Z,26.03
2019-03-19T00:20:29.344Z,26.03
2019-03-19T00:21:30.739Z,25.98
2019-03-19T00:22:32.152Z,25.98
2019-03-19T00:23:35.815Z,25.98
2019-03-19T00:24:37.236Z,26.08
2019-03-19T00:25:38.652Z,25.91
2019-03-19T00:26:40.060Z,26.02
2019-03-19T00:27:41.621Z,26.06
2019-03-19T00:28:42.995Z,26.07
2019-03-19T00:29:44.396Z,25.96
2019-03-19T00:30:45.774Z,26.03
2019-03-19T00:31:47.163Z,25.99
2019-03-19T00:32:48.561Z,26.01
2019-03-19T00:33:50.070Z,25.93
2019-03-19T00:34:51.591Z,25.98
2019-03-19T00:35:52.993Z,25.94
2019-03-19T00:36:54.405Z,25.97
2019-03-19T00:37:55.806Z,26.02
2019-03-19T00:38:57.288Z,26.00
2019-03-19T00:39:58.695Z,26.01
2019-03-19T00:41:00.074Z,25.99
2019-03-19T00:42:01.573Z,26.05
2019-03-19T00:43:03.253Z,25.99
2019-03-19T00:44:04.662Z,25.97
2019-03-19T00:45:10.350Z,25.96
2019-03-19T00:46:11.763Z,25.98
2019-03-19T00:47:13.168Z,25.96
2019-03-19T00:48:14.597Z,25.95
2019-03-19T00:49:16.078Z,25.97
2019-03-19T00:50:17.477Z,25.95
2019-03-19T00:51:18.955Z,26.02
2019-03-19T00:52:20.361Z,26.00
2019-03-19T00:53:21.811Z,26.03
2019-03-19T00:54:23.794Z,25.98
2019-03-19T00:55:25.203Z,25.92
2019-03-19T00:56:26.619Z,25.87
2019-03-19T00:57:28.132Z,25.81
2019-03-19T00:58:29.684Z,25.76
2019-03-19T00:59:31.061Z,25.77
2019-03-19T01:00:32.561Z,25.87
2019-03-19T01:01:33.940Z,25.90
2019-03-19T01:02:35.336Z,25.86
2019-03-19T01:03:36.993Z,25.98
2019-03-19T01:04:38.509Z,25.95
2019-03-19T01:05:39.917Z,25.95
2019-03-19T01:06:41.433Z,25.83
2019-03-19T01:07:42.837Z,25.84
2019-03-19T01:08:44.503Z,25.93
2019-03-19T01:09:45.993Z,25.96
2019-03-19T01:10:47.498Z,25.94
2019-03-19T01:11:48.870Z,25.89
2019-03-19T01:12:50.271Z,25.93
2019-03-19T01:13:51.692Z,25.93
2019-03-19T01:14:53.103Z,25.93
2019-03-19T01:15:54.517Z,25.87
2019-03-19T01:16:55.928Z,25.84
2019-03-19T01:17:57.332Z,25.86
2019-03-19T01:18:58.759Z,25.81
2019-03-19T01:20:01.239Z,25.83
2019-03-19T01:21:02.633Z,25.88
2019-03-19T01:22:04.001Z,25.97
2019-03-19T01:23:05.393Z,25.93
2019-03-19T01:24:06.936Z,25.85
2019-03-19T01:25:08.912Z,25.83
2019-03-19T01:26:10.326Z,25.93
2019-03-19T01:27:11.735Z,25.82
2019-03-19T01:28:13.148Z,25.85
2019-03-19T01:29:14.552Z,25.94
2019-03-19T01:30:16.232Z,25.92
2019-03-19T01:31:17.630Z,25.94
2019-03-19T01:32:19.009Z,25.89
2019-03-19T01:33:20.409Z,25.95
2019-03-19T01:34:21.801Z,25.92
2019-03-19T01:35:23.208Z,25.88
2019-03-19T01:36:24.630Z,25.90
2019-03-19T01:37:26.043Z,25.97
2019-03-19T01:38:27.556Z,25.96
2019-03-19T01:39:29.163Z,25.97
2019-03-19T01:40:30.542Z,25.99
2019-03-19T01:41:31.940Z,26.00
2019-03-19T01:42:33.317Z,26.00
2019-03-19T01:43:34.712Z,25.92
2019-03-19T01:44:36.265Z,26.01
2019-03-19T01:45:37.676Z,25.95
2019-03-19T01:46:39.093Z,25.94
2019-03-19T01:47:40.501Z,25.94
2019-03-19T01:48:41.915Z,25.97
2019-03-19T01:49:43.468Z,25.91
2019-03-19T01:50:45.852Z,26.01
2019-03-19T01:51:47.248Z,25.97
2019-03-19T01:52:48.631Z,25.93
2019-03-19T01:53:50.128Z,26.02
2019-03-19T01:54:51.543Z,25.91
2019-03-19T01:55:53.120Z,25.98
2019-03-19T01:56:55.053Z,25.93
2019-03-19T01:57:56.478Z,25.90
2019-03-19T01:58:57.886Z,25.82
2019-03-19T01:59:59.332Z,25.93
2019-03-19T02:01:00.702Z,25.93
2019-03-19T02:02:02.108Z,25.90
2019-03-19T02:03:03.483Z,25.89
2019-03-19T02:04:04.980Z,25.89
2019-03-19T02:05:06.516Z,25.88
2019-03-19T02:06:07.926Z,25.92
2019-03-19T02:07:09.332Z,25.92
2019-03-19T02:08:10.747Z,25.95
2019-03-19T02:09:12.148Z,25.94
2019-03-19T02:10:13.653Z,25.95
2019-03-19T02:11:15.048Z,25.94
2019-03-19T02:12:16.439Z,25.87
2019-03-19T02:13:17.809Z,25.93
2019-03-19T02:14:19.207Z,25.94
2019-03-19T02:15:20.657Z,25.94
2019-03-19T02:16:25.968Z,25.97
2019-03-19T02:17:27.380Z,25.91
2019-03-19T02:18:28.794Z,25.81
2019-03-19T02:19:30.307Z,25.77
2019-03-19T02:20:31.711Z,25.80
2019-03-19T02:21:33.085Z,25.83
2019-03-19T02:22:34.481Z,25.84
2019-03-19T02:23:35.866Z,25.87
2019-03-19T02:24:37.261Z,25.80
2019-03-19T02:25:38.654Z,25.84
2019-03-19T02:26:40.146Z,25.92
2019-03-19T02:27:42.088Z,25.86
2019-03-19T02:28:43.609Z,25.82
2019-03-19T02:29:45.020Z,25.90
2019-03-19T02:30:46.420Z,25.81
2019-03-19T02:31:48.777Z,25.82
2019-03-19T02:32:50.174Z,25.94
2019-03-19T02:33:51.552Z,25.85
2019-03-19T02:34:52.958Z,25.79
2019-03-19T02:35:54.360Z,25.77
2019-03-19T02:36:55.766Z,25.84
2019-03-19T02:37:57.178Z,25.88
2019-03-19T02:38:58.592Z,25.91
2019-03-19T02:40:00.017Z,25.95
2019-03-19T02:41:01.414Z,25.87
2019-03-19T02:42:02.779Z,25.74
2019-03-19T02:43:04.177Z,25.83
2019-03-19T02:44:05.547Z,25.83
2019-03-19T02:45:10.312Z,25.84
2019-03-19T02:46:11.798Z,25.79
2019-03-19T02:47:13.210Z,25.77
2019-03-19T02:48:14.610Z,25.80
2019-03-19T02:49:16.043Z,25.92
2019-03-19T02:50:17.456Z,25.82
2019-03-19T02:51:18.926Z,25.83
2019-03-19T02:52:20.287Z,25.82
2019-03-19T02:53:21.678Z,25.83
2019-03-19T02:54:23.108Z,25.80
2019-03-19T02:55:24.500Z,25.81
2019-03-19T02:56:32.430Z,25.75
2019-03-19T02:57:30.388Z,25.79
2019-03-19T02:58:32.529Z,25.83
2019-03-19T02:59:33.917Z,25.75
2019-03-19T03:00:35.304Z,25.74
2019-03-19T03:01:43.373Z,25.75
2019-03-19T03:02:44.942Z,25.78
2019-03-19T03:03:46.847Z,25.85
2019-03-19T03:04:48.222Z,25.77
2019-03-19T03:05:49.617Z,25.73
2019-03-19T03:06:51.006Z,25.78
2019-03-19T03:07:52.404Z,25.91
2019-03-19T03:08:53.775Z,25.88
2019-03-19T03:09:55.180Z,25.87
2019-03-19T03:10:56.559Z,25.80
2019-03-19T03:11:57.962Z,25.79
2019-03-19T03:12:59.534Z,25.78
2019-03-19T03:14:01.033Z,25.73
2019-03-19T03:15:02.818Z,25.71
2019-03-19T03:16:04.202Z,25.70
2019-03-19T03:17:05.598Z,25.71
2019-03-19T03:18:07.000Z,25.71
2019-03-19T03:19:08.380Z,25.72
2019-03-19T03:20:11.302Z,25.74
2019-03-19T03:21:12.757Z,25.70
2019-03-19T03:22:14.157Z,25.63
2019-03-19T03:23:15.572Z,25.63
2019-03-19T03:24:17.970Z,25.61
2019-03-19T03:25:19.355Z,25.54
2019-03-19T03:26:20.739Z,25.53
2019-03-19T03:27:22.137Z,25.65
2019-03-19T03:28:23.709Z,25.64
2019-03-19T03:29:25.100Z,25.70
2019-03-19T03:30:26.485Z,25.74
2019-03-19T03:31:27.873Z,25.64
2019-03-19T03:32:29.275Z,25.72
2019-03-19T03:33:30.814Z,25.72
2019-03-19T03:34:32.202Z,25.78
2019-03-19T03:35:33.690Z,25.75
2019-03-19T03:36:35.084Z,25.63
2019-03-19T03:37:36.502Z,25.53
2019-03-19T03:38:37.864Z,25.67
2019-03-19T03:39:39.250Z,25.60
2019-03-19T03:40:40.648Z,25.54
2019-03-19T03:41:42.026Z,25.61
2019-03-19T03:42:43.927Z,25.58
2019-03-19T03:43:45.407Z,25.63
2019-03-19T03:44:46.888Z,25.58
2019-03-19T03:45:48.269Z,25.64
2019-03-19T03:46:49.657Z,25.57
2019-03-19T03:47:51.042Z,25.56
2019-03-19T03:48:52.550Z,25.63
2019-03-19T03:49:53.932Z,25.64
2019-03-19T03:50:55.341Z,25.60
2019-03-19T03:51:56.823Z,25.65
2019-03-19T03:52:58.228Z,25.69
2019-03-19T03:53:59.735Z,25.62
2019-03-19T03:55:01.282Z,25.67
2019-03-19T03:56:02.811Z,25.70
2019-03-19T03:57:04.200Z,25.66
2019-03-19T03:58:05.585Z,25.79
2019-03-19T03:59:07.054Z,25.75
2019-03-19T04:00:22.610Z,25.65
2019-03-19T04:01:24.007Z,25.67
2019-03-19T04:02:25.379Z,25.62
2019-03-19T04:03:26.788Z,25.66
2019-03-19T04:04:28.182Z,25.67
2019-03-19T04:05:29.581Z,25.66
2019-03-19T04:06:30.961Z,25.66
2019-03-19T04:07:32.343Z,25.68
2019-03-19T04:08:33.735Z,25.79
2019-03-19T04:09:35.172Z,25.70
2019-03-19T04:10:36.551Z,25.68
2019-03-19T04:11:37.962Z,25.66
2019-03-19T04:12:39.433Z,25.63
2019-03-19T04:13:40.832Z,25.60
2019-03-19T04:14:42.248Z,25.63
2019-03-19T04:15:43.633Z,25.56
2019-03-19T04:16:45.147Z,25.59
2019-03-19T04:17:46.519Z,25.66
2019-03-19T04:18:47.904Z,25.64
2019-03-19T04:19:49.474Z,25.66
2019-03-19T04:20:50.850Z,25.59
2019-03-19T04:21:52.249Z,25.70
2019-03-19T04:22:53.733Z,25.65
2019-03-19T04:23:55.127Z,25.61
2019-03-19T04:24:56.622Z,25.58
2019-03-19T04:25:58.033Z,25.56
2019-03-19T04:26:59.394Z,25.58
2019-03-19T04:28:00.789Z,25.68
2019-03-19T04:29:02.261Z,25.58
2019-03-19T04:30:12.144Z,25.54
2019-03-19T04:31:13.502Z,25.59
2019-03-19T04:32:14.982Z,25.53
2019-03-19T04:33:16.377Z,25.52
2019-03-19T04:34:17.745Z,25.68
2019-03-19T04:35:20.134Z,25.61
2019-03-19T04:36:21.527Z,25.65
2019-03-19T04:37:23.016Z,25.59
2019-03-19T04:38:24.413Z,25.67
2019-03-19T04:39:26.000Z,25.60
2019-03-19T04:40:27.432Z,25.62
2019-03-19T04:41:28.811Z,25.51
2019-03-19T04:42:30.218Z,25.44
2019-03-19T04:43:31.614Z,25.51
2019-03-19T04:44:33.114Z,25.57
2019-03-19T04:45:34.535Z,25.49
2019-03-19T04:46:35.919Z,25.58
2019-03-19T04:47:37.412Z,25.63
2019-03-19T04:48:38.914Z,25.62
2019-03-19T04:49:40.296Z,25.63
2019-03-19T04:50:42.739Z,25.53
2019-03-19T04:51:44.104Z,25.57
2019-03-19T04:52:45.504Z,25.59
2019-03-19T04:53:47.890Z,25.62
2019-03-19T04:54:49.288Z,25.63
2019-03-19T04:55:50.844Z,25.54
2019-03-19T04:56:52.224Z,25.50
2019-03-19T04:57:53.621Z,25.45
2019-03-19T04:58:55.104Z,25.45
2019-03-19T04:59:58.945Z,25.46
2019-03-19T05:00:59.939Z,25.50
2019-03-19T05:02:01.319Z,25.44
2019-03-19T05:03:02.961Z,25.46
2019-03-19T05:04:04.368Z,25.50
2019-03-19T05:05:08.146Z,25.40
2019-03-19T05:06:09.551Z,25.39
2019-03-19T05:07:10.943Z,25.34
2019-03-19T05:08:12.330Z,25.33
2019-03-19T05:09:13.720Z,25.34
2019-03-19T05:10:16.141Z,25.38
2019-03-19T05:11:17.700Z,25.35
2019-03-19T05:12:19.082Z,25.36
2019-03-19T05:13:20.473Z,25.50
2019-03-19T05:14:21.861Z,25.41
2019-03-19T05:15:23.305Z,25.40
2019-03-19T05:16:24.719Z,25.42
2019-03-19T05:17:26.113Z,25.43
2019-03-19T05:18:27.544Z,25.40
2019-03-19T05:19:29.098Z,25.39
2019-03-19T05:20:30.483Z,25.31
2019-03-19T05:21:32.001Z,25.41
2019-03-19T05:22:33.380Z,25.33
2019-03-19T05:23:34.784Z,25.33
2019-03-19T05:24:36.165Z,25.36
2019-03-19T05:25:37.563Z,25.40
2019-03-19T05:26:39.075Z,25.48
2019-03-19T05:27:40.486Z,25.41
2019-03-19T05:28:41.896Z,25.35
2019-03-19T05:29:43.317Z,25.46
2019-03-19T05:30:44.709Z,25.44
2019-03-19T05:31:46.203Z,25.39
2019-03-19T05:32:47.592Z,25.41
2019-03-19T05:33:49.575Z,25.42
2019-03-19T05:34:51.058Z,25.40
2019-03-19T05:35:52.465Z,25.37
2019-03-19T05:36:53.959Z,25.31
2019-03-19T05:37:55.347Z,25.32
2019-03-19T05:38:56.733Z,25.34
2019-03-19T05:39:58.125Z,25.33
2019-03-19T05:40:59.512Z,25.39
2019-03-19T05:42:01.019Z,25.38
2019-03-19T05:43:02.400Z,25.46
2019-03-19T05:44:03.799Z,25.51
2019-03-19T05:45:08.273Z,25.43
2019-03-19T05:46:09.664Z,25.33
2019-03-19T05:47:11.053Z,25.30
2019-03-19T05:48:12.438Z,25.25
2019-03-19T05:49:13.830Z,25.29
2019-03-19T05:50:17.021Z,25.28
2019-03-19T05:51:18.396Z,25.25
2019-03-19T05:52:19.817Z,25.29
2019-03-19T05:53:21.197Z,25.32
2019-03-19T05:54:22.603Z,25.29
2019-03-19T05:55:23.975Z,25.41
2019-03-19T05:56:28.914Z,25.31
2019-03-19T05:57:30.320Z,25.23
2019-03-19T05:58:31.692Z,25.26
2019-03-19T05:59:34.199Z,25.34
2019-03-19T06:00:37.479Z,25.32
2019-03-19T06:01:38.976Z,25.40
2019-03-19T06:02:41.528Z,25.38
2019-03-19T06:03:42.909Z,25.38
2019-03-19T06:04:44.285Z,25.42
2019-03-19T06:05:45.671Z,25.47
2019-03-19T06:06:47.048Z,25.41
2019-03-19T06:07:48.469Z,25.40
2019-03-19T06:08:49.853Z,25.39
2019-03-19T06:09:51.241Z,25.33
2019-03-19T06:10:52.729Z,25.32
2019-03-19T06:11:54.109Z,25.31
2019-03-19T06:12:55.506Z,25.25
2019-03-19T06:13:56.889Z,25.17
2019-03-19T06:14:58.286Z,25.17
2019-03-19T06:15:59.665Z,25.11
2019-03-19T06:17:01.066Z,25.06
2019-03-19T06:18:02.615Z,25.02
2019-03-19T06:19:04.004Z,24.96
2019-03-19T06:20:08.792Z,24.90
2019-03-19T06:21:10.175Z,24.82
2019-03-19T06:22:11.560Z,24.74
2019-03-19T06:23:13.098Z,24.66
2019-03-19T06:24:14.477Z,24.62
2019-03-19T06:25:16.079Z,24.53
2019-03-19T06:26:17.545Z,24.44
2019-03-19T06:27:18.938Z,24.31
2019-03-19T06:28:20.411Z,24.24
2019-03-19T06:29:21.798Z,24.16
2019-03-19T06:30:23.785Z,24.07
2019-03-19T06:31:25.171Z,23.91
2019-03-19T06:32:26.544Z,23.86
2019-03-19T06:33:28.109Z,23.73
2019-03-19T06:34:29.494Z,23.64
2019-03-19T06:35:30.880Z,23.49
2019-03-19T06:36:32.265Z,23.32
2019-03-19T06:37:33.645Z,23.32
2019-03-19T06:38:35.243Z,23.20
2019-03-19T06:39:36.632Z,23.14
2019-03-19T06:40:38.024Z,23.00
2019-03-19T06:41:39.421Z,22.92
2019-03-19T06:42:41.807Z,22.86
2019-03-19T06:43:43.215Z,22.78
2019-03-19T06:44:44.625Z,22.71
2019-03-19T06:45:45.981Z,22.67
2019-03-19T06:46:47.357Z,22.65
2019-03-19T06:47:48.761Z,22.59
2019-03-19T06:48:50.180Z,22.58
2019-03-19T06:49:51.571Z,22.49
2019-03-19T06:50:52.956Z,22.41
2019-03-19T06:51:54.341Z,22.36
2019-03-19T06:52:55.829Z,22.34
2019-03-19T06:53:57.258Z,22.30
2019-03-19T06:54:58.633Z,22.22
2019-03-19T06:56:00.042Z,22.21
2019-03-19T06:57:01.453Z,22.19
2019-03-19T06:58:10.581Z,22.14
2019-03-19T06:59:06.452Z,22.05
2019-03-19T07:00:20.482Z,22.16
2019-03-19T07:01:21.861Z,22.22
2019-03-19T07:02:23.261Z,22.18
2019-03-19T07:03:24.613Z,22.11
2019-03-19T07:04:26.081Z,22.09
2019-03-19T07:05:27.451Z,22.05
2019-03-19T07:06:28.831Z,22.13
2019-03-19T07:07:30.680Z,22.15
2019-03-19T07:08:32.212Z,22.09
2019-03-19T07:09:33.607Z,22.12
2019-03-19T07:10:34.996Z,22.10
2019-03-19T07:11:36.382Z,22.05
2019-03-19T07:12:37.874Z,22.07
2019-03-19T07:13:39.264Z,22.00
2019-03-19T07:14:40.689Z,22.02
2019-03-19T07:15:42.073Z,21.99
2019-03-19T07:16:43.473Z,21.96
2019-03-19T07:17:44.855Z,21.96
2019-03-19T07:18:46.247Z,21.96
2019-03-19T07:19:47.640Z,22.01
2019-03-19T07:20:49.043Z,22.02
2019-03-19T07:21:50.416Z,21.92
2019-03-19T07:22:51.807Z,21.93
2019-03-19T07:23:53.199Z,21.99
2019-03-19T07:24:54.602Z,21.94
2019-03-19T07:25:55.986Z,21.92
2019-03-19T07:26:57.385Z,21.92
2019-03-19T07:27:58.766Z,22.00
2019-03-19T07:29:00.166Z,21.99
2019-03-19T07:30:02.013Z,22.02
2019-03-19T07:31:03.383Z,21.98
2019-03-19T07:32:04.782Z,21.98
2019-03-19T07:33:06.195Z,21.98
2019-03-19T07:34:07.645Z,21.99
2019-03-19T07:35:09.130Z,21.96
2019-03-19T07:36:10.508Z,21.98
2019-03-19T07:37:12.887Z,21.96
2019-03-19T07:38:14.734Z,22.03
2019-03-19T07:39:16.127Z,21.99
2019-03-19T07:40:17.509Z,21.93
2019-03-19T07:41:18.899Z,21.92
2019-03-19T07:42:20.281Z,21.91
2019-03-19T07:43:21.669Z,21.90
2019-03-19T07:44:23.058Z,21.97
2019-03-19T07:45:24.587Z,21.97
2019-03-19T07:46:25.961Z,21.92
2019-03-19T07:47:27.460Z,21.96
2019-03-19T07:48:28.849Z,21.96
2019-03-19T07:49:30.343Z,22.01
2019-03-19T07:50:31.855Z,22.05
2019-03-19T07:51:33.343Z,21.98
2019-03-19T07:52:34.735Z,22.04
2019-03-19T07:53:36.116Z,22.10
2019-03-19T07:54:37.507Z,22.07
2019-03-19T07:55:38.935Z,22.09
2019-03-19T07:56:40.322Z,22.05
2019-03-19T07:57:41.929Z,22.07
2019-03-19T07:58:45.561Z,22.07
2019-03-19T07:59:46.666Z,22.07
2019-03-19T08:00:48.164Z,22.04
2019-03-19T08:01:49.542Z,21.93
2019-03-19T08:02:50.937Z,22.03
2019-03-19T08:03:52.314Z,22.05
2019-03-19T08:04:53.699Z,21.96
2019-03-19T08:05:55.159Z,21.97
2019-03-19T08:06:56.529Z,21.96
2019-03-19T08:07:57.911Z,22.04
2019-03-19T08:08:59.297Z,21.98
2019-03-19T08:10:00.672Z,21.98
2019-03-19T08:11:02.091Z,21.96
2019-03-19T08:12:03.765Z,22.00
2019-03-19T08:13:05.253Z,22.03
2019-03-19T08:14:06.634Z,22.00
2019-03-19T08:15:11.622Z,22.03
2019-03-19T08:16:14.123Z,22.05
2019-03-19T08:17:16.492Z,22.00
2019-03-19T08:18:17.890Z,22.05
2019-03-19T08:19:19.260Z,22.03
2019-03-19T08:20:20.762Z,21.99
2019-03-19T08:21:22.607Z,21.99
2019-03-19T08:22:24.038Z,22.04
2019-03-19T08:23:25.520Z,22.03
2019-03-19T08:24:26.912Z,22.08
2019-03-19T08:25:28.306Z,22.03
2019-03-19T08:26:29.815Z,22.05
2019-03-19T08:27:31.189Z,22.04
2019-03-19T08:28:33.807Z,22.03
2019-03-19T08:29:35.390Z,22.07
2019-03-19T08:30:36.797Z,22.05
2019-03-19T08:31:38.395Z,22.03
2019-03-19T08:32:39.775Z,22.02
2019-03-19T08:33:41.178Z,22.08
2019-03-19T08:34:42.556Z,22.10
2019-03-19T08:35:43.951Z,22.03
2019-03-19T08:36:45.440Z,22.05
2019-03-19T08:37:46.814Z,22.05
2019-03-19T08:38:48.194Z,22.03
2019-03-19T08:39:49.579Z,21.98
2019-03-19T08:40:51.173Z,22.04
2019-03-19T08:41:52.584Z,22.13
2019-03-19T08:42:53.977Z,22.03
2019-03-19T08:43:55.367Z,22.02
2019-03-19T08:44:57.760Z,22.04
2019-03-19T08:45:59.151Z,22.05
2019-03-19T08:47:00.552Z,22.05
2019-03-19T08:48:01.939Z,22.01
2019-03-19T08:49:03.332Z,22.05
2019-03-19T08:50:08.312Z,22.00
2019-03-19T08:51:09.788Z,21.98
2019-03-19T08:52:12.297Z,21.95
2019-03-19T08:53:13.691Z,22.08
2019-03-19T08:54:15.083Z,22.05
2019-03-19T08:55:16.466Z,22.09
2019-03-19T08:56:17.956Z,22.16
2019-03-19T08:57:19.355Z,22.17
2019-03-19T08:58:20.738Z,22.11
2019-03-19T08:59:23.139Z,22.11
2019-03-19T09:00:25.820Z,22.05
2019-03-19T09:01:27.218Z,22.11
2019-03-19T09:02:28.697Z,22.16
2019-03-19T09:03:30.084Z,22.21
2019-03-19T09:04:31.466Z,22.26
2019-03-19T09:05:32.850Z,22.28
2019-03-19T09:06:34.225Z,22.21
2019-03-19T09:07:35.685Z,22.21
2019-03-19T09:08:37.064Z,22.16
2019-03-19T09:09:38.440Z,22.17
2019-03-19T09:10:39.836Z,22.14
2019-03-19T09:11:41.720Z,22.20
2019-03-19T09:12:43.301Z,22.25
2019-03-19T09:13:44.689Z,22.25
2019-03-19T09:14:46.083Z,22.25
2019-03-19T09:15:47.463Z,22.19
2019-03-19T09:16:48.956Z,22.24
2019-03-19T09:17:50.347Z,22.22
2019-03-19T09:18:51.834Z,22.21
2019-03-19T09:19:53.236Z,22.15
2019-03-19T09:20:54.612Z,22.29
2019-03-19T09:21:56.005Z,22.29
2019-03-19T09:22:57.416Z,22.22
2019-03-19T09:23:58.904Z,22.25
2019-03-19T09:25:00.333Z,22.26
2019-03-19T09:26:01.672Z,22.19
2019-03-19T09:27:03.062Z,22.24
2019-03-19T09:28:04.597Z,22.18
2019-03-19T09:29:16.097Z,22.17
2019-03-19T09:30:17.859Z,22.15
2019-03-19T09:31:19.370Z,22.23
2019-03-19T09:32:20.780Z,22.28
2019-03-19T09:33:22.189Z,22.26
2019-03-19T09:34:23.663Z,22.21
2019-03-19T09:35:26.358Z,22.23
2019-03-19T09:36:27.947Z,22.20
2019-03-19T09:37:29.334Z,22.18
2019-03-19T09:38:31.102Z,22.18
2019-03-19T09:39:32.483Z,22.15
2019-03-19T09:40:33.852Z,22.20
2019-03-19T09:41:35.250Z,22.22
2019-03-19T09:42:38.161Z,22.22
2019-03-19T09:43:39.571Z,22.21
2019-03-19T09:44:40.961Z,22.27
2019-03-19T09:45:42.445Z,22.27
2019-03-19T09:46:43.832Z,22.24
2019-03-19T09:47:45.813Z,22.25
2019-03-19T09:48:47.799Z,22.21
2019-03-19T09:49:49.216Z,22.19
2019-03-19T09:50:50.614Z,22.17
2019-03-19T09:51:51.997Z,22.17
2019-03-19T09:52:53.398Z,22.19
2019-03-19T09:53:54.943Z,22.15
2019-03-19T09:54:56.329Z,22.17
2019-03-19T09:55:57.711Z,22.16
2019-03-19T09:56:59.099Z,22.12
2019-03-19T09:58:00.489Z,22.14
2019-03-19T09:59:02.064Z,22.06
2019-03-19T10:00:07.175Z,22.10
2019-03-19T10:01:08.580Z,22.09
2019-03-19T10:02:09.994Z,22.07
2019-03-19T10:03:11.407Z,22.11
2019-03-19T10:04:12.812Z,22.13
2019-03-19T10:05:14.198Z,22.13
2019-03-19T10:06:15.595Z,22.17
2019-03-19T10:07:16.980Z,22.18
2019-03-19T10:08:18.470Z,22.15
2019-03-19T10:09:20.057Z,22.13
2019-03-19T10:10:22.266Z,22.06
2019-03-19T10:11:23.606Z,22.09
2019-03-19T10:12:24.984Z,22.14
2019-03-19T10:13:29.824Z,22.08
2019-03-19T10:14:31.208Z,22.10
2019-03-19T10:15:32.598Z,22.02
2019-03-19T10:16:33.985Z,22.06
2019-03-19T10:17:35.378Z,22.06
2019-03-19T10:18:36.780Z,22.03
2019-03-19T10:19:38.213Z,22.05
2019-03-19T10:20:39.584Z,22.05
2019-03-19T10:21:40.989Z,22.09
2019-03-19T10:22:42.377Z,22.09
2019-03-19T10:23:43.765Z,22.06
2019-03-19T10:24:45.179Z,22.08
2019-03-19T10:25:47.664Z,22.13
2019-03-19T10:26:49.044Z,22.14
2019-03-19T10:27:50.435Z,22.13
2019-03-19T10:28:51.811Z,22.13
2019-03-19T10:29:53.230Z,22.15
2019-03-19T10:30:54.621Z,22.20
2019-03-19T10:31:56.030Z,22.18
2019-03-19T10:32:57.528Z,22.15
2019-03-19T10:33:58.941Z,22.19
2019-03-19T10:35:00.436Z,22.18
2019-03-19T10:36:01.814Z,22.13
2019-03-19T10:37:03.207Z,22.17
2019-03-19T10:38:04.577Z,22.17
2019-03-19T10:39:06.165Z,22.12
2019-03-19T10:40:10.233Z,22.07
2019-03-19T10:41:12.613Z,22.12
2019-03-19T10:42:13.980Z,22.12
2019-03-19T10:43:15.460Z,22.13
2019-03-19T10:44:20.316Z,22.10
2019-03-19T10:45:22.497Z,22.14
2019-03-19T10:46:23.879Z,22.08
2019-03-19T10:47:25.269Z,22.07
2019-03-19T10:48:26.711Z,22.20
2019-03-19T10:49:28.097Z,22.23
2019-03-19T10:50:29.492Z,22.20
2019-03-19T10:51:30.873Z,22.17
2019-03-19T10:52:32.371Z,22.24
2019-03-19T10:53:33.950Z,22.22
2019-03-19T10:54:35.549Z,22.21
2019-03-19T10:55:36.936Z,22.18
2019-03-19T10:56:39.049Z,22.17
2019-03-19T10:57:40.513Z,22.15
2019-03-19T10:58:41.964Z,22.23
2019-03-19T10:59:49.047Z,22.18
2019-03-19T11:00:46.708Z,22.17
2019-03-19T11:01:48.183Z,22.22
2019-03-19T11:02:50.291Z,22.22
2019-03-19T11:03:51.650Z,22.18
2019-03-19T11:04:53.044Z,22.21
2019-03-19T11:05:55.424Z,22.15
2019-03-19T11:06:56.834Z,22.13
2019-03-19T11:07:58.241Z,22.19
2019-03-19T11:08:59.644Z,22.23
2019-03-19T11:10:01.130Z,22.18
2019-03-19T11:11:03.822Z,22.17
2019-03-19T11:12:05.264Z,22.22
2019-03-19T11:13:06.656Z,22.28
2019-03-19T11:14:08.035Z,22.33
2019-03-19T11:15:21.253Z,22.30
2019-03-19T11:16:22.797Z,22.30
2019-03-19T11:17:24.194Z,22.21
2019-03-19T11:18:25.621Z,22.23
2019-03-19T11:19:27.012Z,22.22
2019-03-19T11:20:28.407Z,22.23
2019-03-19T11:21:30.100Z,22.21
2019-03-19T11:22:33.419Z,22.22
2019-03-19T11:23:34.888Z,22.18
2019-03-19T11:24:36.274Z,22.20
2019-03-19T11:25:37.657Z,22.17
2019-03-19T11:26:39.073Z,22.22
2019-03-19T11:27:40.572Z,22.15
2019-03-19T11:28:41.962Z,22.20
2019-03-19T11:29:43.374Z,22.31
2019-03-19T11:30:44.780Z,22.26
2019-03-19T11:31:46.353Z,22.22
2019-03-19T11:32:47.924Z,22.21
2019-03-19T11:33:49.328Z,22.23
2019-03-19T11:34:50.704Z,22.23
2019-03-19T11:35:52.208Z,22.25
2019-03-19T11:36:57.664Z,22.27
2019-03-19T11:37:57.044Z,22.24
2019-03-19T11:38:58.458Z,22.25
2019-03-19T11:39:59.873Z,22.27
2019-03-19T11:41:02.764Z,22.23
2019-03-19T11:42:05.539Z,22.25
2019-03-19T11:43:07.013Z,22.23
2019-03-19T11:44:08.414Z,22.25
2019-03-19T11:45:12.793Z,22.26
2019-03-19T11:46:15.294Z,22.28
2019-03-19T11:47:16.838Z,22.24
2019-03-19T11:48:18.204Z,22.21
2019-03-19T11:49:19.692Z,22.21
2019-03-19T11:50:25.479Z,22.22
2019-03-19T11:51:26.940Z,22.29
2019-03-19T11:52:28.432Z,22.30
2019-03-19T11:53:29.805Z,22.31
2019-03-19T11:54:31.297Z,22.32
2019-03-19T11:55:32.672Z,22.30
2019-03-19T11:56:34.072Z,22.32
2019-03-19T11:57:35.566Z,22.36
2019-03-19T11:58:36.980Z,22.32
2019-03-19T11:59:38.385Z,22.33
2019-03-19T12:00:44.460Z,22.35
2019-03-19T12:01:45.873Z,22.36
2019-03-19T12:02:47.266Z,22.35
2019-03-19T12:03:48.635Z,22.31
2019-03-19T12:04:50.030Z,22.30
2019-03-19T12:05:51.403Z,22.27
2019-03-19T12:06:52.810Z,22.30
2019-03-19T12:07:54.188Z,22.30
2019-03-19T12:08:55.608Z,22.33
2019-03-19T12:09:57.023Z,22.30
2019-03-19T12:10:58.438Z,22.29
2019-03-19T12:11:59.964Z,22.24
2019-03-19T12:13:01.498Z,22.33
2019-03-19T12:14:03.964Z,22.31
2019-03-19T12:15:10.302Z,22.36
2019-03-19T12:16:11.678Z,22.38
2019-03-19T12:17:13.081Z,22.43
2019-03-19T12:18:14.484Z,22.42
2019-03-19T12:19:15.884Z,22.39
2019-03-19T12:20:17.352Z,22.43
2019-03-19T12:21:18.741Z,22.36
2019-03-19T12:22:20.131Z,22.40
2019-03-19T12:23:21.533Z,22.37
2019-03-19T12:24:23.004Z,22.37
2019-03-19T12:25:24.417Z,22.40
2019-03-19T12:26:25.798Z,22.40
2019-03-19T12:27:27.196Z,22.45
2019-03-19T12:28:39.056Z,22.33
2019-03-19T12:29:31.909Z,22.35
2019-03-19T12:30:33.288Z,22.38
2019-03-19T12:31:34.680Z,22.40
2019-03-19T12:32:36.079Z,22.33
2019-03-19T12:33:41.227Z,22.40
2019-03-19T12:34:40.779Z,22.30
2019-03-19T12:35:42.180Z,22.33
2019-03-19T12:36:43.549Z,22.33
2019-03-19T12:37:44.954Z,22.36
2019-03-19T12:38:46.350Z,22.28
2019-03-19T12:39:47.740Z,22.36
2019-03-19T12:40:49.134Z,22.27
2019-03-19T12:41:50.827Z,22.31
2019-03-19T12:42:52.224Z,22.34
2019-03-19T12:43:53.880Z,22.33
2019-03-19T12:44:55.262Z,22.30
2019-03-19T12:45:56.642Z,22.33
2019-03-19T12:46:58.030Z,22.33
2019-03-19T12:47:59.406Z,22.36
2019-03-19T12:49:00.797Z,22.31
2019-03-19T12:50:05.086Z,22.32
2019-03-19T12:51:06.469Z,22.31
2019-03-19T12:52:07.860Z,22.31
2019-03-19T12:53:09.245Z,22.33
2019-03-19T12:54:10.644Z,22.33
2019-03-19T12:55:12.129Z,22.34
2019-03-19T12:56:13.525Z,22.38
2019-03-19T12:57:14.947Z,22.37
2019-03-19T12:58:16.449Z,22.41
2019-03-19T12:59:20.495Z,22.40
2019-03-19T13:00:33.519Z,22.36
2019-03-19T13:01:28.627Z,22.44
2019-03-19T13:02:30.097Z,22.41
2019-03-19T13:03:31.480Z,22.40
2019-03-19T13:04:33.101Z,22.41
2019-03-19T13:05:34.476Z,22.38
2019-03-19T13:06:35.878Z,22.39
2019-03-19T13:07:37.259Z,22.42
2019-03-19T13:08:38.662Z,22.51
2019-03-19T13:09:40.060Z,22.42
2019-03-19T13:10:41.444Z,22.42
2019-03-19T13:11:42.850Z,22.40
2019-03-19T13:12:45.237Z,22.40
2019-03-19T13:13:46.617Z,22.40
2019-03-19T13:14:48.071Z,22.48